Big Bear Station Historical Data
Daily Summary for January 1, 2018 Units:  English    Metric   Both
Next Day »
Daily Weekly Monthly Yearly Custom
  High: Low: Average:
Temperature: 57.9 °F 24.8 °F 38 °F
Dew Point: 24.1 °F 4.8 °F 12.9 °F
Humidity: 79% 13% 43%
Wind Speed: 2.7mph 0.0mph 0.2mph
Wind Gust: -999.0mph - -
Wind- - SSW
Pressure: 30.34 in 30.27 in -
Precipitation: 0.00 in    
Historical Graphs
 
 
Tabular Data for January 1, 2018
Time Temperature Dew Point Pressure Wind Wind Speed Wind Gust Humidity Rainfall Rate (Hourly)
00:13 28.4 °F 13.0 °F 30.29 in Calm   -999.0 mph 52% 0 in
00:29 28.2 °F 12.8 °F 30.28 in Calm   -999.0 mph 52% 0 in
00:44 28.0 °F 13.1 °F 30.29 in Calm   -999.0 mph 53% 0 in
00:59 27.5 °F 12.6 °F 30.28 in Calm   -999.0 mph 53% 0 in
01:14 27.1 °F 13.9 °F 30.29 in Calm   -999.0 mph 57% 0 in
01:29 27.5 °F 13.4 °F 30.29 in Calm   -999.0 mph 55% 0 in
01:45 27.1 °F 13.9 °F 30.28 in Calm   -999.0 mph 57% 0 in
02:00 27.0 °F 14.2 °F 30.29 in Calm   -999.0 mph 58% 0 in
02:15 26.8 °F 15.5 °F 30.29 in Calm   -999.0 mph 62% 0 in
02:30 27.1 °F 17.9 °F 30.29 in Calm   -999.0 mph 68% 0 in
02:46 26.6 °F 16.4 °F 30.29 in Calm   -999.0 mph 65% 0 in
03:01 26.6 °F 15.7 °F 30.29 in Calm   -999.0 mph 63% 0 in
03:16 26.4 °F 15.9 °F 30.28 in Calm   -999.0 mph 64% 0 in
03:31 26.6 °F 17.1 °F 30.28 in Calm   -999.0 mph 67% 0 in
03:46 26.1 °F 16.6 °F 30.28 in Calm   -999.0 mph 67% 0 in
04:02 26.1 °F 15.6 °F 30.28 in Calm   -999.0 mph 64% 0 in
04:17 25.7 °F 15.6 °F 30.28 in Calm   -999.0 mph 65% 0 in
04:32 25.5 °F 16.1 °F 30.28 in Calm   -999.0 mph 67% 0 in
04:47 25.9 °F 18.4 °F 30.28 in Calm   -999.0 mph 73% 0 in
05:02 25.5 °F 17.7 °F 30.28 in Calm   -999.0 mph 72% 0 in
05:18 25.7 °F 17.9 °F 30.28 in Calm   -999.0 mph 72% 0 in
05:33 25.2 °F 17.4 °F 30.29 in Calm   -999.0 mph 72% 0 in
05:49 25.3 °F 16.9 °F 30.29 in Calm   -999.0 mph 70% 0 in
06:04 25.0 °F 17.6 °F 30.29 in Calm   -999.0 mph 73% 0 in
06:19 25.2 °F 18.4 °F 30.30 in Calm   -999.0 mph 75% 0 in
06:34 24.8 °F 18.3 °F 30.30 in Calm   -999.0 mph 76% 0 in
06:49 25.0 °F 19.1 °F 30.30 in Calm   -999.0 mph 78% 0 in
07:05 25.3 °F 19.7 °F 30.30 in Calm   -999.0 mph 79% 0 in
07:20 25.5 °F 18.7 °F 30.30 in Calm   -999.0 mph 75% 0 in
07:35 25.5 °F 18.0 °F 30.30 in Calm   -999.0 mph 73% 0 in
07:50 25.7 °F 18.9 °F 30.31 in Calm   -999.0 mph 75% 0 in
08:05 26.2 °F 19.0 °F 30.31 in Calm   -999.0 mph 74% 0 in
08:21 26.6 °F 19.7 °F 30.32 in Calm   -999.0 mph 75% 0 in
08:36 28.2 °F 19.7 °F 30.32 in Calm   -999.0 mph 70% 0 in
08:51 28.8 °F 21.6 °F 30.32 in Calm   -999.0 mph 74% 0 in
09:06 29.7 °F 21.8 °F 30.32 in Calm   -999.0 mph 72% 0 in
09:22 31.1 °F 24.1 °F 30.32 in Calm   -999.0 mph 75% 0 in
09:37 32.5 °F 24.1 °F 30.32 in Calm   -999.0 mph 71% 0 in
09:53 36.3 °F 22.1 °F 30.33 in Calm   -999.0 mph 56% 0 in
10:08 39.6 °F 23.4 °F 30.33 in Calm   -999.0 mph 52% 0 in
10:23 41.0 °F 16.1 °F 30.33 in Calm   -999.0 mph 36% 0 in
10:38 47.1 °F 13.0 °F 30.33 in Calm   -999.0 mph 25% 0 in
10:53 47.5 °F 15.1 °F 30.32 in WNW 1.7 mph -999.0 mph 27% 0 in
11:09 50.5 °F 12.0 °F 30.32 in Calm   -999.0 mph 21% 0 in
11:24 52.2 °F 14.5 °F 30.32 in Calm   -999.0 mph 22% 0 in
11:39 52.0 °F 20.7 °F 30.31 in Calm   -999.0 mph 29% 0 in
11:54 54.1 °F 16.1 °F 30.31 in NW 2.7 mph -999.0 mph 22% 0 in
12:09 57.6 °F 8.7 °F 30.30 in Calm   -999.0 mph 14% 0 in
12:25 57.9 °F 7.3 °F 30.30 in Calm   -999.0 mph 13% 0 in
12:40 57.9 °F 7.3 °F 30.29 in Calm   -999.0 mph 13% 0 in
12:55 56.8 °F 6.4 °F 30.29 in South 1.1 mph -999.0 mph 13% 0 in
13:11 57.0 °F 8.2 °F 30.29 in Calm   -999.0 mph 14% 0 in
13:26 56.8 °F 8.1 °F 30.28 in Calm   -999.0 mph 14% 0 in
13:41 56.5 °F 7.8 °F 30.28 in NE 2.7 mph -999.0 mph 14% 0 in
13:56 55.9 °F 8.9 °F 30.27 in ENE 1.7 mph -999.0 mph 15% 0 in
14:11 55.6 °F 8.6 °F 30.27 in West 1.7 mph -999.0 mph 15% 0 in
14:27 56.1 °F 7.5 °F 30.27 in Calm   -999.0 mph 14% 0 in
14:42 55.4 °F 8.5 °F 30.27 in Calm   -999.0 mph 15% 0 in
14:57 55.2 °F 8.3 °F 30.28 in WNW 1.7 mph -999.0 mph 15% 0 in
15:12 54.1 °F 8.8 °F 30.28 in NNW 1.7 mph -999.0 mph 16% 0 in
15:27 53.6 °F 7.0 °F 30.28 in Calm   -999.0 mph 15% 0 in
15:43 52.9 °F 6.4 °F 30.29 in Calm   -999.0 mph 15% 0 in
15:58 52.3 °F 7.4 °F 30.28 in Calm   -999.0 mph 16% 0 in
16:13 51.1 °F 7.7 °F 30.29 in Calm   -999.0 mph 17% 0 in
16:28 49.6 °F 7.8 °F 30.29 in South 1.7 mph -999.0 mph 18% 0 in
16:43 48.4 °F 8.0 °F 30.29 in Calm   -999.0 mph 19% 0 in
16:59 47.3 °F 7.1 °F 30.29 in Calm   -999.0 mph 19% 0 in
17:14 46.6 °F 7.6 °F 30.30 in Calm   -999.0 mph 20% 0 in
17:29 46.0 °F 8.2 °F 30.30 in Calm   -999.0 mph 21% 0 in
17:44 45.1 °F 8.5 °F 30.30 in Calm   -999.0 mph 22% 0 in
18:00 44.6 °F 8.1 °F 30.30 in Calm   -999.0 mph 22% 0 in
18:15 44.1 °F 7.6 °F 30.30 in Calm   -999.0 mph 22% 0 in
18:31 43.5 °F 9.1 °F 30.30 in Calm   -999.0 mph 24% 0 in
18:46 43.0 °F 8.6 °F 30.31 in Calm   -999.0 mph 24% 0 in
19:01 42.4 °F 8.1 °F 30.31 in Calm   -999.0 mph 24% 0 in
19:31 40.6 °F 7.5 °F 30.31 in Calm   -999.0 mph 25% 0 in
19:47 40.3 °F 6.3 °F 30.31 in Calm   -999.0 mph 24% 0 in
20:02 39.7 °F 5.8 °F 30.31 in Calm   -999.0 mph 24% 0 in
20:17 38.7 °F 5.0 °F 30.31 in Calm   -999.0 mph 24% 0 in
20:32 37.8 °F 5.1 °F 30.31 in Calm   -999.0 mph 25% 0 in
21:03 36.5 °F 4.8 °F 30.32 in Calm   -999.0 mph 26% 0 in
21:18 36.1 °F 6.1 °F 30.32 in Calm   -999.0 mph 28% 0 in
22:04 34.2 °F 6.7 °F 30.33 in Calm   -999.0 mph 31% 0 in
22:34 33.6 °F 13.5 °F 30.34 in SSE 1.1 mph -999.0 mph 43% 0 in
22:49 33.3 °F 9.8 °F 30.34 in Calm   -999.0 mph 37% 0 in
23:04 33.1 °F 9.6 °F 30.34 in South 1.7 mph -999.0 mph 37% 0 in
23:20 32.5 °F 9.1 °F 30.34 in Calm   -999.0 mph 37% 0 in
23:35 32.2 °F 11.1 °F 30.34 in Calm   -999.0 mph 41% 0 in
23:50 32.0 °F 12.5 °F 30.34 in Calm   -999.0 mph 44% 0 in
Big Bear CA Weather